Time;durP1;ratioP1;P1;durP2;ratioP2;P2;SDS_P1;SDS_P2;PMS_P1;PMS_P2;Temp;Humidity;BMP_temperature;BMP_pressure;BME280_temperature;BME280_humidity;BME280_pressure;Samples;Min_cycle;Max_cycle;Signal;HPM_P1;HPM_P2
2023/07/14 00:00:31;;;;;;;4.50;1.80;;;;;;;;;;5016955;28;20077;-79
2023/07/14 00:02:57;;;;;;;4.22;2.10;;;;;;;;;;5021362;28;20396;-78
2023/07/14 00:05:29;;;;;;;4.63;1.75;;;;;;;;;;5038004;28;20037;-77
2023/07/14 00:07:56;;;;;;;4.30;1.70;;;;;;;;;;5027429;28;20497;-79
2023/07/14 00:10:25;;;;;;;3.83;1.70;;;;;;;;;;5017157;28;20504;-78
2023/07/14 00:12:51;;;;;;;5.30;1.70;;;;;;;;;;5022717;28;20046;-77
2023/07/14 00:15:18;;;;;;;3.88;1.70;;;;;;;;;;5034545;28;20052;-78
2023/07/14 00:17:44;;;;;;;4.33;1.80;;;;;;;;;;5014093;28;20037;-78
2023/07/14 00:20:28;;;;;;;3.40;1.90;;;;;;;;;;5040462;28;20051;-78
2023/07/14 00:22:55;;;;;;;3.95;1.77;;;;;;;;;;5014261;28;20060;-78
2023/07/14 00:25:22;;;;;;;4.88;2.10;;;;;;;;;;5022559;28;20095;-80
2023/07/14 00:27:49;;;;;;;3.72;1.55;;;;;;;;;;5031721;28;20592;-80
2023/07/14 00:30:21;;;;;;;5.47;1.60;;;;;;;;;;5025068;28;20034;-79
2023/07/14 00:32:48;;;;;;;3.33;1.60;;;;;;;;;;5032965;28;20046;-79
2023/07/14 00:35:16;;;;;;;4.37;2.50;;;;;;;;;;5038452;28;20044;-77
2023/07/14 00:37:42;;;;;;;3.45;1.88;;;;;;;;;;5031845;28;20040;-79
2023/07/14 00:40:08;;;;;;;3.30;1.60;;;;;;;;;;5021730;28;20045;-79
2023/07/14 00:42:36;;;;;;;4.00;1.80;;;;;;;;;;5016348;28;20718;-78
2023/07/14 00:45:09;;;;;;;4.68;2.65;;;;;;;;;;5035046;28;20065;-80
2023/07/14 00:47:34;;;;;;;4.38;1.73;;;;;;;;;;5021905;28;20041;-78
2023/07/14 00:50:01;;;;;;;4.60;1.95;;;;;;;;;;5037376;28;20612;-78
2023/07/14 00:52:32;;;;;;;4.13;1.80;;;;;;;;;;5018818;28;20495;-79
2023/07/14 00:55:19;;;;;;;3.05;1.73;;;;;;;;;;5020044;28;20037;-79
2023/07/14 00:57:45;;;;;;;4.18;1.88;;;;;;;;;;5039541;28;20029;-79
2023/07/14 01:00:23;;;;;;;4.90;2.00;;;;;;;;;;5033014;28;20048;-77
2023/07/14 01:02:49;;;;;;;5.72;2.08;;;;;;;;;;5021885;28;20041;-78
2023/07/14 01:05:14;;;;;;;4.15;2.00;;;;;;;;;;5020553;28;20040;-80
2023/07/14 01:07:42;;;;;;;3.60;1.95;;;;;;;;;;5024834;28;20109;-78
2023/07/14 01:10:10;;;;;;;4.15;2.13;;;;;;;;;;5023217;28;20053;-78
2023/07/14 01:12:38;;;;;;;5.10;2.30;;;;;;;;;;5032390;28;20063;-78
2023/07/14 01:15:05;;;;;;;4.70;2.15;;;;;;;;;;5018893;28;20036;-78
2023/07/14 01:17:31;;;;;;;;;;;;;;;;;;5023025;28;20029;-78
2023/07/14 01:20:00;;;;;;;4.97;1.98;;;;;;;;;;5006902;28;19916;-80
2023/07/14 01:22:41;;;;;;;5.90;1.90;;;;;;;;;;5022212;28;20488;-78
2023/07/14 01:25:07;;;;;;;3.63;2.20;;;;;;;;;;5033509;28;20405;-78
2023/07/14 01:27:33;;;;;;;4.88;1.80;;;;;;;;;;5032814;28;20033;-77
2023/07/14 01:29:59;;;;;;;5.07;2.17;;;;;;;;;;5021237;28;20045;-78
2023/07/14 01:32:34;;;;;;;5.07;2.08;;;;;;;;;;5049151;28;20120;-79
2023/07/14 01:35:00;;;;;;;3.72;2.00;;;;;;;;;;5018560;28;20045;-78
2023/07/14 01:37:25;;;;;;;3.20;1.85;;;;;;;;;;5005699;28;20087;-79
2023/07/14 01:39:51;;;;;;;4.25;1.90;;;;;;;;;;5021134;28;20041;-78
2023/07/14 01:42:18;;;;;;;4.45;2.25;;;;;;;;;;5038643;28;20040;-78
2023/07/14 01:44:44;;;;;;;3.95;2.20;;;;;;;;;;5017145;28;20044;-79
2023/07/14 01:47:11;;;;;;;12.03;2.30;;;;;;;;;;5021981;28;20111;-77
2023/07/14 01:49:41;;;;;;;4.97;2.42;;;;;;;;;;5041001;28;20037;-78
2023/07/14 01:52:11;;;;;;;3.55;2.03;;;;;;;;;;5018511;28;20037;-79
2023/07/14 01:54:49;;;;;;;4.15;2.30;;;;;;;;;;5014835;28;20033;-77
2023/07/14 01:57:17;;;;;;;4.28;2.00;;;;;;;;;;5035843;28;20099;-78
2023/07/14 01:59:48;;;;;;;4.50;2.10;;;;;;;;;;5029074;28;20110;-79
2023/07/14 02:02:21;;;;;;;5.60;2.53;;;;;;;;;;5022259;28;20048;-77
2023/07/14 02:04:47;;;;;;;4.47;2.38;;;;;;;;;;5033561;28;20131;-78
2023/07/14 02:07:13;;;;;;;4.70;2.60;;;;;;;;;;5024276;28;20029;-78
2023/07/14 02:09:41;;;;;;;5.03;2.55;;;;;;;;;;5008110;28;20033;-77
2023/07/14 02:12:34;;;;;;;4.40;2.47;;;;;;;;;;5050413;28;20037;-79
2023/07/14 02:15:05;;;;;;;5.07;2.40;;;;;;;;;;5033363;28;20420;-79
2023/07/14 02:17:33;;;;;;;4.85;2.40;;;;;;;;;;5043369;28;20037;-79
2023/07/14 02:20:00;;;;;;;4.30;2.42;;;;;;;;;;5019051;28;20118;-78
2023/07/14 02:22:26;;;;;;;;;;;;;;;;;;5038139;28;20374;-79
2023/07/14 02:24:53;;;;;;;3.65;2.13;;;;;;;;;;5036133;28;19917;-79
2023/07/14 02:27:18;;;;;;;4.93;2.47;;;;;;;;;;5010849;28;20036;-77
2023/07/14 02:29:44;;;;;;;5.18;2.70;;;;;;;;;;5037799;28;20504;-78
2023/07/14 02:32:12;;;;;;;4.57;2.40;;;;;;;;;;5033130;28;20333;-77
2023/07/14 02:34:41;;;;;;;4.72;2.40;;;;;;;;;;5041505;28;20042;-78
2023/07/14 02:38:02;;;;;;;4.72;2.42;;;;;;;;;;5026295;28;20397;-77
2023/07/14 02:40:30;;;;;;;5.50;2.53;;;;;;;;;;5031612;28;20063;-77
2023/07/14 02:42:56;;;;;;;3.97;2.42;;;;;;;;;;5032552;28;20507;-78
2023/07/14 02:45:23;;;;;;;4.43;2.28;;;;;;;;;;5034319;28;20037;-78
2023/07/14 02:47:50;;;;;;;5.03;2.40;;;;;;;;;;5043714;28;20065;-78
2023/07/14 02:50:16;;;;;;;4.80;2.50;;;;;;;;;;5035631;28;20440;-79
2023/07/14 02:52:41;;;;;;;4.78;2.75;;;;;;;;;;5021611;28;20144;-78
2023/07/14 02:55:07;;;;;;;4.18;2.42;;;;;;;;;;5022116;28;20098;-79
2023/07/14 02:57:38;;;;;;;4.70;2.80;;;;;;;;;;5034079;28;20108;-78
2023/07/14 03:00:08;;;;;;;6.03;2.70;;;;;;;;;;5031491;28;20044;-76
2023/07/14 03:02:34;;;;;;;4.60;2.40;;;;;;;;;;5048940;28;20036;-78
2023/07/14 03:05:02;;;;;;;4.13;2.67;;;;;;;;;;5013667;28;20040;-78
2023/07/14 03:07:28;;;;;;;4.75;2.20;;;;;;;;;;5032832;28;20121;-79
2023/07/14 03:09:53;;;;;;;5.38;2.75;;;;;;;;;;5012727;28;20048;-80
2023/07/14 03:12:20;;;;;;;4.18;2.40;;;;;;;;;;5039001;28;20045;-78
2023/07/14 03:14:45;;;;;;;3.65;2.40;;;;;;;;;;5048953;28;20041;-78
2023/07/14 03:17:11;;;;;;;5.53;2.55;;;;;;;;;;5051353;28;20095;-77
2023/07/14 03:19:36;;;;;;;4.00;2.55;;;;;;;;;;5035374;28;20134;-78
2023/07/14 03:22:02;;;;;;;5.47;2.50;;;;;;;;;;5020543;28;20053;-78
2023/07/14 03:24:27;;;;;;;6.00;2.42;;;;;;;;;;5022418;28;20118;-78
2023/07/14 03:26:53;;;;;;;5.53;2.95;;;;;;;;;;5034347;28;20049;-79
2023/07/14 03:29:19;;;;;;;5.82;2.90;;;;;;;;;;5020433;28;20084;-77
2023/07/14 03:31:44;;;;;;;4.88;2.67;;;;;;;;;;5020378;28;20036;-78
2023/07/14 03:34:10;;;;;;;6.75;2.72;;;;;;;;;;5035469;28;21153;-78
2023/07/14 03:36:37;;;;;;;5.13;2.78;;;;;;;;;;5018578;28;20037;-78
2023/07/14 03:39:26;;;;;;;5.47;2.78;;;;;;;;;;5023583;28;20037;-78
2023/07/14 03:41:53;;;;;;;5.05;2.85;;;;;;;;;;5011779;28;20393;-79
2023/07/14 03:44:19;;;;;;;4.37;2.60;;;;;;;;;;5032821;28;20033;-77
2023/07/14 03:46:45;;;;;;;5.38;3.10;;;;;;;;;;5009007;28;20049;-78
2023/07/14 03:49:11;;;;;;;5.30;2.90;;;;;;;;;;5032533;28;20048;-78
2023/07/14 03:51:36;;;;;;;5.28;2.70;;;;;;;;;;5036765;28;20032;-78
2023/07/14 03:54:02;;;;;;;5.10;3.00;;;;;;;;;;5022862;28;20122;-78
2023/07/14 03:56:27;;;;;;;5.07;2.90;;;;;;;;;;5017105;28;20033;-78
2023/07/14 03:58:55;;;;;;;4.57;2.90;;;;;;;;;;5022615;28;20570;-79
2023/07/14 04:01:21;;;;;;;4.43;2.88;;;;;;;;;;5026120;28;20033;-79
2023/07/14 04:03:47;;;;;;;4.97;2.60;;;;;;;;;;5016858;28;20578;-78
2023/07/14 04:06:13;;;;;;;4.40;2.90;;;;;;;;;;5032776;28;20540;-79
2023/07/14 04:08:42;;;;;;;5.30;2.97;;;;;;;;;;5013087;28;20087;-80
2023/07/14 04:11:08;;;;;;;5.10;2.88;;;;;;;;;;5033657;28;20061;-79
2023/07/14 04:13:36;;;;;;;4.85;3.20;;;;;;;;;;5033667;28;20029;-78
2023/07/14 04:16:09;;;;;;;6.43;3.55;;;;;;;;;;5016867;28;20090;-78
2023/07/14 04:18:35;;;;;;;5.00;3.00;;;;;;;;;;5023208;28;20095;-79
2023/07/14 04:21:10;;;;;;;5.68;2.95;;;;;;;;;;5033532;28;20382;-77
2023/07/14 04:23:36;;;;;;;5.03;3.00;;;;;;;;;;5006997;28;20041;-78
2023/07/14 04:26:02;;;;;;;4.88;3.10;;;;;;;;;;5008531;28;20041;-81
2023/07/14 04:28:39;;;;;;;5.70;3.17;;;;;;;;;;5027575;28;20448;-81
2023/07/14 04:31:04;;;;;;;4.65;3.17;;;;;;;;;;5032084;28;20045;-81
2023/07/14 04:33:30;;;;;;;5.57;3.08;;;;;;;;;;5025943;28;20036;-81
2023/07/14 04:35:59;;;;;;;4.75;2.95;;;;;;;;;;5048531;28;20071;-80
2023/07/14 04:38:25;;;;;;;6.10;3.20;;;;;;;;;;5032057;28;20056;-81
2023/07/14 04:40:51;;;;;;;7.07;3.40;;;;;;;;;;5023216;28;20064;-83
2023/07/14 04:43:24;;;;;;;6.28;3.22;;;;;;;;;;5033892;28;20474;-81
2023/07/14 04:45:51;;;;;;;6.35;3.50;;;;;;;;;;5037506;28;20040;-81
2023/07/14 04:48:19;;;;;;;5.82;3.55;;;;;;;;;;5033604;28;20412;-81
2023/07/14 04:50:47;;;;;;;;;;;;;;;;;;5032456;28;20121;-81
2023/07/14 04:53:14;;;;;;;5.45;3.30;;;;;;;;;;5008329;28;19913;-81
2023/07/14 04:55:41;;;;;;;6.82;3.03;;;;;;;;;;5019671;28;20037;-80
2023/07/14 04:58:11;;;;;;;4.88;3.15;;;;;;;;;;5049641;28;20427;-80
2023/07/14 05:00:38;;;;;;;5.50;3.08;;;;;;;;;;5029722;28;20033;-80
2023/07/14 05:03:05;;;;;;;6.53;3.55;;;;;;;;;;5020563;28;20116;-80
2023/07/14 05:05:37;;;;;;;6.20;2.83;;;;;;;;;;5002139;28;20087;-80
2023/07/14 05:08:02;;;;;;;6.28;3.38;;;;;;;;;;4998852;28;20487;-82
2023/07/14 05:10:31;;;;;;;4.82;2.83;;;;;;;;;;5031119;28;20036;-79
2023/07/14 05:12:57;;;;;;;5.40;3.10;;;;;;;;;;4999450;28;20520;-79
2023/07/14 05:15:24;;;;;;;6.22;3.20;;;;;;;;;;5014007;28;20036;-80
2023/07/14 05:17:51;;;;;;;6.10;2.80;;;;;;;;;;5032325;28;20497;-80
2023/07/14 05:20:17;;;;;;;8.60;3.53;;;;;;;;;;5017126;28;20036;-79
2023/07/14 05:22:45;;;;;;;4.70;2.88;;;;;;;;;;5019306;28;20037;-79
2023/07/14 05:25:12;;;;;;;7.70;3.08;;;;;;;;;;5048001;28;20128;-79
2023/07/14 05:27:38;;;;;;;5.40;3.22;;;;;;;;;;5023893;28;20026;-78
2023/07/14 05:30:05;;;;;;;5.90;3.00;;;;;;;;;;5041975;28;20068;-79
2023/07/14 05:32:33;;;;;;;5.20;3.10;;;;;;;;;;5017760;28;20400;-79
2023/07/14 05:34:59;;;;;;;7.30;3.10;;;;;;;;;;5037390;28;20374;-79
2023/07/14 05:37:24;;;;;;;5.53;2.67;;;;;;;;;;5036700;28;20048;-80
2023/07/14 05:39:50;;;;;;;5.53;3.15;;;;;;;;;;5019699;28;20450;-79
2023/07/14 05:42:16;;;;;;;5.88;2.90;;;;;;;;;;5004605;28;20381;-79
2023/07/14 05:44:41;;;;;;;5.93;2.90;;;;;;;;;;5034551;28;20041;-80
2023/07/14 05:47:30;;;;;;;4.65;2.70;;;;;;;;;;5032791;28;20041;-80
2023/07/14 05:49:55;;;;;;;5.03;2.80;;;;;;;;;;4937652;28;20039;-79
2023/07/14 05:52:22;;;;;;;4.90;2.65;;;;;;;;;;4938698;28;20488;-84
2023/07/14 05:54:48;;;;;;;6.75;2.88;;;;;;;;;;4937967;28;20107;-82
2023/07/14 05:57:14;;;;;;;6.95;2.92;;;;;;;;;;4944935;28;20090;-79
2023/07/14 05:59:40;;;;;;;4.60;2.75;;;;;;;;;;4929386;28;20043;-77
2023/07/14 06:02:09;;;;;;;4.75;2.47;;;;;;;;;;4940664;28;20138;-78
2023/07/14 06:04:36;;;;;;;3.85;2.40;;;;;;;;;;4922608;28;20050;-79
2023/07/14 06:07:03;;;;;;;4.38;2.65;;;;;;;;;;4943865;28;20486;-79
2023/07/14 06:09:34;;;;;;;5.63;2.72;;;;;;;;;;4943334;28;20035;-83
2023/07/14 06:12:03;;;;;;;6.30;2.60;;;;;;;;;;4923523;28;20495;-79
2023/07/14 06:14:33;;;;;;;5.28;2.58;;;;;;;;;;4954519;28;20086;-79
2023/07/14 06:16:59;;;;;;;5.30;2.53;;;;;;;;;;4935515;28;20064;-80
2023/07/14 06:19:27;;;;;;;5.53;2.60;;;;;;;;;;4925269;28;20046;-79
2023/07/14 06:21:54;;;;;;;4.30;2.58;;;;;;;;;;4938868;28;20035;-78
2023/07/14 06:24:20;;;;;;;5.75;2.28;;;;;;;;;;4949074;28;20047;-78
2023/07/14 06:26:46;;;;;;;5.25;2.60;;;;;;;;;;4983551;28;20432;-78
2023/07/14 06:29:22;;;;;;;5.72;2.97;;;;;;;;;;5035508;28;20037;-77
2023/07/14 06:31:48;;;;;;;4.85;2.45;;;;;;;;;;5021944;28;20388;-78
2023/07/14 06:34:13;;;;;;;4.97;2.15;;;;;;;;;;5037889;28;20041;-77
2023/07/14 06:36:39;;;;;;;4.47;2.35;;;;;;;;;;5032573;28;20792;-79
2023/07/14 06:39:05;;;;;;;4.75;2.40;;;;;;;;;;5026136;28;20043;-78
2023/07/14 06:41:30;;;;;;;5.50;2.08;;;;;;;;;;5036225;28;20033;-80
2023/07/14 06:43:57;;;;;;;5.43;2.55;;;;;;;;;;5016225;28;20056;-80
2023/07/14 06:46:22;;;;;;;6.25;2.40;;;;;;;;;;5020837;28;20127;-79
2023/07/14 06:48:48;;;;;;;6.20;2.08;;;;;;;;;;5034457;28;20088;-79
2023/07/14 06:51:13;;;;;;;4.68;2.20;;;;;;;;;;5021104;28;20040;-79
2023/07/14 06:53:40;;;;;;;3.83;2.10;;;;;;;;;;5023724;28;20123;-80
2023/07/14 06:56:07;;;;;;;3.72;1.90;;;;;;;;;;5007697;28;20041;-80
2023/07/14 06:58:32;;;;;;;4.88;2.00;;;;;;;;;;5035225;28;20060;-79
2023/07/14 07:00:58;;;;;;;6.47;2.10;;;;;;;;;;5024127;28;20033;-78
2023/07/14 07:03:23;;;;;;;4.57;1.90;;;;;;;;;;5033228;28;20138;-79
2023/07/14 07:05:50;;;;;;;4.43;1.80;;;;;;;;;;5033113;28;20037;-78
2023/07/14 07:08:16;;;;;;;4.30;2.05;;;;;;;;;;5022342;28;20509;-79
2023/07/14 07:10:42;;;;;;;3.67;1.80;;;;;;;;;;5020347;28;20064;-79
2023/07/14 07:13:09;;;;;;;7.70;3.20;;;;;;;;;;5031074;28;20049;-79
2023/07/14 07:15:39;;;;;;;4.05;1.90;;;;;;;;;;5009640;28;20334;-79
2023/07/14 07:18:06;;;;;;;7.60;1.80;;;;;;;;;;5024711;28;20523;-79
2023/07/14 07:20:32;;;;;;;4.75;2.10;;;;;;;;;;5036515;28;20091;-80
2023/07/14 07:22:58;;;;;;;3.38;1.60;;;;;;;;;;5033032;28;20497;-79
2023/07/14 07:25:23;;;;;;;4.53;1.77;;;;;;;;;;5036808;28;20045;-80
2023/07/14 07:27:49;;;;;;;4.05;1.33;;;;;;;;;;5019216;28;20032;-79
2023/07/14 07:30:14;;;;;;;3.20;1.55;;;;;;;;;;5038190;28;20162;-81
2023/07/14 07:32:41;;;;;;;4.25;1.30;;;;;;;;;;5019291;28;20033;-79
2023/07/14 07:35:08;;;;;;;3.90;1.50;;;;;;;;;;5023504;28;20037;-79
2023/07/14 07:37:33;;;;;;;5.40;1.60;;;;;;;;;;5019134;28;20036;-78
2023/07/14 07:39:59;;;;;;;4.15;1.58;;;;;;;;;;5026960;28;20036;-80
2023/07/14 07:42:25;;;;;;;4.00;1.40;;;;;;;;;;5036445;28;20588;-80
2023/07/14 07:44:50;;;;;;;4.88;1.20;;;;;;;;;;5035627;28;20041;-79
2023/07/14 07:47:16;;;;;;;3.35;1.20;;;;;;;;;;5052140;28;20515;-79
2023/07/14 07:49:42;;;;;;;3.72;1.13;;;;;;;;;;5012419;28;20033;-80
2023/07/14 07:52:08;;;;;;;3.00;1.13;;;;;;;;;;5020287;28;20041;-80
2023/07/14 07:54:33;;;;;;;3.25;1.20;;;;;;;;;;5020161;28;20033;-79
2023/07/14 07:56:59;;;;;;;3.90;1.35;;;;;;;;;;5022971;28;20183;-81
2023/07/14 07:59:24;;;;;;;3.10;1.20;;;;;;;;;;5018329;28;20029;-79
2023/07/14 08:01:57;;;;;;;5.25;1.40;;;;;;;;;;5018038;28;20037;-80
2023/07/14 08:04:26;;;;;;;3.00;1.08;;;;;;;;;;5034245;28;20467;-79
2023/07/14 08:06:52;;;;;;;3.60;1.13;;;;;;;;;;5016470;28;20158;-79
2023/07/14 08:09:20;;;;;;;5.63;1.10;;;;;;;;;;5021147;28;20444;-79
2023/07/14 08:11:45;;;;;;;3.53;1.30;;;;;;;;;;5032253;28;20045;-79
2023/07/14 08:14:14;;;;;;;3.90;1.15;;;;;;;;;;5010876;28;20545;-79
2023/07/14 08:16:40;;;;;;;3.67;1.00;;;;;;;;;;5007991;28;20029;-80
2023/07/14 08:19:06;;;;;;;3.60;1.27;;;;;;;;;;5000552;28;20093;-79
2023/07/14 08:21:32;;;;;;;3.92;1.05;;;;;;;;;;5023979;28;20121;-79
2023/07/14 08:23:58;;;;;;;2.25;1.00;;;;;;;;;;5037643;28;20107;-81
2023/07/14 08:26:23;;;;;;;3.40;1.17;;;;;;;;;;4999791;28;20504;-81
2023/07/14 08:28:49;;;;;;;4.20;1.13;;;;;;;;;;5023926;28;20034;-79
2023/07/14 08:31:15;;;;;;;2.92;1.10;;;;;;;;;;5011148;28;20048;-80
2023/07/14 08:33:43;;;;;;;3.70;0.95;;;;;;;;;;5019576;28;20230;-80
2023/07/14 08:36:09;;;;;;;2.58;1.00;;;;;;;;;;5027751;28;20033;-80
2023/07/14 08:38:55;;;;;;;3.55;0.90;;;;;;;;;;5028141;28;20156;-81
2023/07/14 08:41:33;;;;;;;4.25;1.10;;;;;;;;;;5019060;28;20055;-84
2023/07/14 08:44:10;;;;;;;2.70;1.10;;;;;;;;;;5026013;28;20050;-83
2023/07/14 08:47:06;;;;;;;3.50;1.10;;;;;;;;;;5032668;28;20066;-79
2023/07/14 08:49:55;;;;;;;4.18;0.95;;;;;;;;;;5029072;28;20052;-80
2023/07/14 08:52:34;;;;;;;3.50;0.95;;;;;;;;;;5023300;28;20033;-80
2023/07/14 08:55:02;;;;;;;3.20;1.05;;;;;;;;;;5030722;28;20060;-81
2023/07/14 08:58:10;;;;;;;3.50;0.90;;;;;;;;;;5007988;28;20036;-83
2023/07/14 09:00:49;;;;;;;3.22;1.02;;;;;;;;;;5030434;28;20033;-79
2023/07/14 09:03:37;;;;;;;3.97;1.20;;;;;;;;;;5009798;28;20108;-79
2023/07/14 09:06:11;;;;;;;4.63;0.90;;;;;;;;;;5014521;28;20079;-79
2023/07/14 09:08:36;;;;;;;3.35;0.95;;;;;;;;;;5017505;28;20033;-79
2023/07/14 09:11:12;;;;;;;3.65;1.00;;;;;;;;;;5017336;28;20400;-79
2023/07/14 09:13:44;;;;;;;3.33;0.90;;;;;;;;;;5031507;28;20041;-80
2023/07/14 09:16:11;;;;;;;2.72;0.80;;;;;;;;;;5045724;28;20076;-80
2023/07/14 09:18:39;;;;;;;2.85;0.77;;;;;;;;;;4993395;28;20029;-80
2023/07/14 09:21:14;;;;;;;3.17;0.88;;;;;;;;;;5032210;28;20052;-79
2023/07/14 09:23:45;;;;;;;3.38;0.77;;;;;;;;;;5039537;28;20041;-80
2023/07/14 09:59:55;;;;;;;3.00;0.90;;;;;;;;;;5027701;28;20048;-83
2023/07/14 10:58:44;;;;;;;2.63;0.80;;;;;;;;;;4619137;28;21752;-85
2023/07/14 11:01:23;;;;;;;2.72;0.77;;;;;;;;;;4455824;28;21487;-85
2023/07/14 11:03:55;;;;;;;3.22;0.73;;;;;;;;;;4503993;28;20072;-85
2023/07/14 11:06:28;;;;;;;2.78;0.90;;;;;;;;;;4453917;28;20685;-85
2023/07/14 11:08:56;;;;;;;2.47;1.10;;;;;;;;;;4397989;28;21200;-83
2023/07/14 11:11:39;;;;;;;2.13;0.85;;;;;;;;;;4504537;28;21200;-84
2023/07/14 11:14:04;;;;;;;2.42;0.75;;;;;;;;;;4383064;28;21526;-84
2023/07/14 11:16:38;;;;;;;2.73;0.97;;;;;;;;;;4426143;28;21264;-84
2023/07/14 11:19:06;;;;;;;2.85;0.88;;;;;;;;;;4511278;28;22407;-85
2023/07/14 11:22:03;;;;;;;4.10;1.33;;;;;;;;;;4465660;28;20061;-84
2023/07/14 11:27:57;;;;;;;1.83;0.70;;;;;;;;;;4446151;28;22426;-84
2023/07/14 11:30:27;;;;;;;2.05;0.77;;;;;;;;;;4435088;28;21892;-83
2023/07/14 11:33:11;;;;;;;2.40;0.80;;;;;;;;;;4478114;28;22115;-84
2023/07/14 11:35:55;;;;;;;2.42;1.10;;;;;;;;;;4543088;28;20060;-83
2023/07/14 11:38:46;;;;;;;3.13;1.02;;;;;;;;;;4547227;28;22422;-83
2023/07/14 11:41:14;;;;;;;4.28;1.20;;;;;;;;;;4514788;28;20847;-82
2023/07/14 11:43:40;;;;;;;2.63;0.90;;;;;;;;;;4336487;28;21731;-83
2023/07/14 11:46:13;;;;;;;2.40;0.98;;;;;;;;;;4314690;28;21490;-83
2023/07/14 11:48:54;;;;;;;3.97;1.25;;;;;;;;;;4374858;28;21299;-84
2023/07/14 11:51:22;;;;;;;3.60;1.30;;;;;;;;;;4384623;28;23001;-83
2023/07/14 11:54:16;;;;;;;3.83;1.30;;;;;;;;;;4324733;28;21918;-83
2023/07/14 11:56:44;;;;;;;3.28;1.05;;;;;;;;;;4378066;28;20054;-83
2023/07/14 11:59:21;;;;;;;3.03;1.20;;;;;;;;;;4352863;28;22705;-83
2023/07/14 12:01:51;;;;;;;2.80;1.20;;;;;;;;;;4338883;28;21904;-83
2023/07/14 12:04:33;;;;;;;3.55;1.38;;;;;;;;;;4422660;28;20060;-84
2023/07/14 12:07:19;;;;;;;2.85;1.27;;;;;;;;;;4416134;28;20219;-84
2023/07/14 12:09:56;;;;;;;3.13;1.20;;;;;;;;;;4451525;28;21382;-84
2023/07/14 12:12:23;;;;;;;3.45;1.38;;;;;;;;;;4296333;28;22059;-83
2023/07/14 12:14:53;;;;;;;5.47;1.40;;;;;;;;;;4332883;28;21622;-83
2023/07/14 12:17:48;;;;;;;3.67;1.55;;;;;;;;;;4369515;28;21133;-84
2023/07/14 12:20:13;;;;;;;3.05;1.30;;;;;;;;;;4429207;28;21475;-82
2023/07/14 12:22:49;;;;;;;4.88;1.50;;;;;;;;;;4490649;28;21866;-82
2023/07/14 12:25:19;;;;;;;3.92;1.60;;;;;;;;;;4385419;28;21940;-84
2023/07/14 12:27:56;;;;;;;2.80;1.40;;;;;;;;;;4520608;28;22111;-82
2023/07/14 12:30:29;;;;;;;3.72;1.40;;;;;;;;;;4461655;28;22443;-83
2023/07/14 12:33:03;;;;;;;3.28;1.55;;;;;;;;;;4646834;28;20061;-83
2023/07/14 12:35:30;;;;;;;4.25;1.80;;;;;;;;;;5045169;28;20401;-83
2023/07/14 12:38:09;;;;;;;3.17;1.50;;;;;;;;;;5025591;28;20493;-83
2023/07/14 12:40:51;;;;;;;3.83;1.50;;;;;;;;;;5024688;28;20040;-83
2023/07/14 12:44:07;;;;;;;5.15;1.60;;;;;;;;;;5005770;28;20049;-82
2023/07/14 12:46:35;;;;;;;5.10;1.48;;;;;;;;;;4959298;28;20043;-82
2023/07/14 12:49:28;;;;;;;4.35;1.77;;;;;;;;;;4947867;28;20995;-84
2023/07/14 12:51:54;;;;;;;4.60;1.60;;;;;;;;;;5007853;28;20124;-85
2023/07/14 12:54:28;;;;;;;5.63;1.60;;;;;;;;;;5024148;28;20091;-85
2023/07/14 12:56:55;;;;;;;4.38;1.95;;;;;;;;;;5022557;28;20140;-84
2023/07/14 12:59:21;;;;;;;2.95;1.50;;;;;;;;;;5025124;28;20033;-84
2023/07/14 13:01:48;;;;;;;3.42;1.70;;;;;;;;;;5031199;28;20087;-85
2023/07/14 13:04:19;;;;;;;4.10;1.90;;;;;;;;;;5027614;28;20039;-85
2023/07/14 13:06:46;;;;;;;4.65;1.58;;;;;;;;;;5009908;28;20094;-85
2023/07/14 13:09:21;;;;;;;4.50;1.77;;;;;;;;;;5008717;28;20052;-85
2023/07/14 13:11:59;;;;;;;4.00;1.67;;;;;;;;;;5010159;28;20084;-81
2023/07/14 13:14:30;;;;;;;2.85;1.55;;;;;;;;;;5033647;28;20521;-82
2023/07/14 13:16:56;;;;;;;4.88;1.70;;;;;;;;;;5037718;28;20548;-84
2023/07/14 13:19:38;;;;;;;4.45;1.60;;;;;;;;;;5041144;28;20028;-84
2023/07/14 13:22:04;;;;;;;5.38;1.70;;;;;;;;;;5037028;28;20585;-85
2023/07/14 13:24:32;;;;;;;5.40;1.50;;;;;;;;;;5035068;28;20041;-85
2023/07/14 13:27:19;;;;;;;3.33;1.75;;;;;;;;;;5023808;28;20032;-84
2023/07/14 13:29:44;;;;;;;3.65;1.70;;;;;;;;;;5034443;28;20523;-85
2023/07/14 13:32:23;;;;;;;4.15;1.77;;;;;;;;;;5030316;28;20069;-86
2023/07/14 13:34:52;;;;;;;3.83;1.65;;;;;;;;;;5032897;28;20064;-85
2023/07/14 13:37:18;;;;;;;3.53;1.30;;;;;;;;;;5020930;28;20025;-86
2023/07/14 13:40:13;;;;;;;3.58;1.60;;;;;;;;;;5032744;28;20123;-86
2023/07/14 13:42:48;;;;;;;3.88;1.88;;;;;;;;;;5030909;28;20065;-84
2023/07/14 13:45:29;;;;;;;3.72;2.00;;;;;;;;;;5020530;28;20029;-84
2023/07/14 13:47:57;;;;;;;4.22;1.80;;;;;;;;;;5033567;28;20059;-84
2023/07/14 13:50:23;;;;;;;3.90;1.70;;;;;;;;;;5022136;28;20068;-84
2023/07/14 13:52:49;;;;;;;2.95;1.55;;;;;;;;;;5040091;28;20500;-85
2023/07/14 13:55:37;;;;;;;4.47;1.77;;;;;;;;;;5014063;28;20037;-83
2023/07/14 13:58:05;;;;;;;4.43;1.95;;;;;;;;;;5017937;28;20446;-85
2023/07/14 14:00:30;;;;;;;5.47;2.00;;;;;;;;;;5033871;28;20033;-86
2023/07/14 14:02:58;;;;;;;5.03;1.88;;;;;;;;;;5034660;28;20064;-84
2023/07/14 14:05:28;;;;;;;3.55;1.80;;;;;;;;;;5032213;28;20044;-82
2023/07/14 14:07:54;;;;;;;4.85;2.10;;;;;;;;;;5033563;28;20405;-85
2023/07/14 14:10:22;;;;;;;3.88;1.60;;;;;;;;;;5016790;28;20412;-85
2023/07/14 14:12:48;;;;;;;4.22;1.90;;;;;;;;;;5019092;28;20082;-85
2023/07/14 14:15:38;;;;;;;5.10;1.70;;;;;;;;;;5022115;28;20124;-86
2023/07/14 14:18:07;;;;;;;4.32;1.55;;;;;;;;;;5027403;28;20037;-85
2023/07/14 14:20:36;;;;;;;3.17;1.60;;;;;;;;;;5031412;28;20493;-86
2023/07/14 14:23:43;;;;;;;6.18;1.95;;;;;;;;;;4990228;28;20052;-86
2023/07/14 14:37:50;;;;;;;;;;;;;;;;;;;;;
2023/07/14 14:53:47;;;;;;;4.00;1.98;;;;;;;;;;4983942;28;20468;-84
2023/07/14 14:56:29;;;;;;;3.83;2.00;;;;;;;;;;4980379;28;20038;-86
2023/07/14 14:59:17;;;;;;;3.95;1.80;;;;;;;;;;4952012;28;20073;-84
2023/07/14 15:01:54;;;;;;;3.55;1.73;;;;;;;;;;4983569;28;20474;-85
2023/07/14 15:04:39;;;;;;;;;;;;;;;;;;;;;
2023/07/14 15:10:55;;;;;;;3.65;1.90;;;;;;;;;;5000869;28;20052;-85
2023/07/14 15:13:45;;;;;;;4.25;2.00;;;;;;;;;;5006425;28;20542;-85
2023/07/14 15:16:38;;;;;;;3.25;1.90;;;;;;;;;;5012954;28;20036;-86
2023/07/14 15:19:28;;;;;;;4.28;1.73;;;;;;;;;;5027515;28;20118;-86
2023/07/14 15:22:08;;;;;;;3.38;1.90;;;;;;;;;;4973859;28;20041;-86
2023/07/14 15:24:58;;;;;;;3.28;1.83;;;;;;;;;;4980280;28;20798;-86
2023/07/14 15:27:51;;;;;;;3.60;1.80;;;;;;;;;;4974225;28;20575;-86
2023/07/14 15:33:47;;;;;;;;;;;;;;;;;;5023205;28;20045;-86
2023/07/14 15:36:26;;;;;;;5.95;2.55;;;;;;;;;;5002442;28;20408;-86
2023/07/14 15:39:20;;;;;;;3.78;2.05;;;;;;;;;;5018112;28;20102;-85
2023/07/14 15:41:45;;;;;;;3.75;1.63;;;;;;;;;;4993878;28;20047;-85
2023/07/14 15:44:50;;;;;;;3.33;1.80;;;;;;;;;;4990194;28;20037;-86
2023/07/14 15:47:16;;;;;;;4.68;1.92;;;;;;;;;;5018406;28;20075;-87
2023/07/14 15:49:41;;;;;;;3.53;1.80;;;;;;;;;;5022562;28;20061;-86
2023/07/14 15:53:07;;;;;;;;;;;;;;;;;;;;;
2023/07/14 15:59:15;;;;;;;4.38;1.70;;;;;;;;;;5011835;28;20089;-86
2023/07/14 16:01:59;;;;;;;3.30;1.60;;;;;;;;;;5006502;28;20484;-87
2023/07/14 16:04:47;;;;;;;4.22;1.70;;;;;;;;;;5020382;28;20049;-86
2023/07/14 16:07:34;;;;;;;3.40;1.58;;;;;;;;;;4994718;28;20055;-86
2023/07/14 16:10:02;;;;;;;3.47;1.67;;;;;;;;;;5043946;28;20033;-86
2023/07/14 16:13:00;;;;;;;;;;;;;;;;;;;;;
2023/07/14 16:15:29;;;;;;;3.42;1.70;;;;;;;;;;5006290;28;20500;-86
2023/07/14 16:18:13;;;;;;;5.22;1.60;;;;;;;;;;5003432;28;20047;-86
2023/07/14 16:20:49;;;;;;;4.72;1.70;;;;;;;;;;5005056;28;20138;-86
2023/07/14 16:23:39;;;;;;;3.78;1.67;;;;;;;;;;5017260;28;20516;-87
2023/07/14 16:26:16;;;;;;;3.95;1.73;;;;;;;;;;5011064;28;20081;-86
2023/07/14 16:29:03;;;;;;;4.28;1.50;;;;;;;;;;5007286;28;20054;-87
2023/07/14 16:31:36;;;;;;;;;;;;;;;;;;4981514;28;20048;-86
2023/07/14 16:34:32;;;;;;;4.07;1.90;;;;;;;;;;4978384;28;19921;-87
2023/07/14 16:37:17;;;;;;;5.07;1.60;;;;;;;;;;4984631;28;20408;-85
2023/07/14 16:40:21;;;;;;;4.10;1.70;;;;;;;;;;4969730;28;20045;-87
2023/07/14 16:42:50;;;;;;;4.88;1.73;;;;;;;;;;4991149;28;20045;-86
2023/07/14 16:45:47;;;;;;;4.25;1.80;;;;;;;;;;5010167;28;20490;-86
2023/07/14 16:48:18;;;;;;;3.97;1.70;;;;;;;;;;4976928;28;20042;-86
2023/07/14 16:51:25;;;;;;;4.90;1.98;;;;;;;;;;5004098;28;20589;-86
2023/07/14 16:54:03;;;;;;;4.70;1.70;;;;;;;;;;4986574;28;20520;-86
2023/07/14 16:56:34;;;;;;;3.78;1.73;;;;;;;;;;4981938;28;20170;-86
2023/07/14 16:59:11;;;;;;;5.25;1.65;;;;;;;;;;5011452;28;20041;-86
2023/07/14 17:01:58;;;;;;;4.63;1.70;;;;;;;;;;4985006;28;20047;-86
2023/07/14 17:04:24;;;;;;;3.25;1.70;;;;;;;;;;5029224;28;20127;-86
2023/07/14 17:06:50;;;;;;;;;;;;;;;;;;5028439;28;20515;-86
2023/07/14 17:09:20;;;;;;;5.85;1.85;;;;;;;;;;5027942;28;19916;-86
2023/07/14 17:11:46;;;;;;;3.58;1.65;;;;;;;;;;5020710;28;20554;-86
2023/07/14 17:14:13;;;;;;;6.38;1.70;;;;;;;;;;5037231;28;20041;-86
2023/07/14 17:16:42;;;;;;;4.30;1.63;;;;;;;;;;5006785;28;20040;-86
2023/07/14 17:19:13;;;;;;;4.00;1.65;;;;;;;;;;5018023;28;20044;-86
2023/07/14 17:21:45;;;;;;;3.45;1.63;;;;;;;;;;5018675;28;20037;-86
2023/07/14 17:24:16;;;;;;;5.45;1.90;;;;;;;;;;5017929;28;20029;-86